»·PEaware :: DAL718 KDEN-KSLC

DAL718 :: KDEN-KSLC

FLIGHT INFORMATION

Flight Status: Arrived
Operator:
Delta Air Lines
More flights by this operator :: More flights under this callsign
Pilot: Bryan M. (20745)
Aircraft: BOEING 737-800
(B738)
More flights by this aircraft type
Origin: KDEN Denver Intl
United States
Destination: KSLC Salt Lake City Intl
United States
More flights between these airports :: More routes between these airports
Route: +FOOOT4 RLG EKR LEEHY5
File this flight plan on PilotEdge
Remarks:
Altitude:
(Current/Filed)
36,000ft
Speed:
(Current/Filed)
463kts
Departed: 10-Oct-18 03:02 PM
Arrived: 10-Oct-18 04:03 PM
Distance/Time
Traveled:
339nm/1:01
Distance/Time
To Go:
Arrived

Flight Plot

Page will automatically refresh every two minutes.

Flight plan parsing failed; only flown route is shown


Map Options




Map Legend


Flown Route
Filed Route
Departure Airport
Arrival Airport
Navaid (VOR, NDB)
Fix

Horizontal Profiles

Position Reports

Time Latitude Longitude Heading Altitude Ground
Speed
10-Oct-18 14:24 39.859216 -104.670738 181 5439ft 0kts
10-Oct-18 14:25 39.859216 -104.670738 181 5439ft 0kts
10-Oct-18 14:26 39.859216 -104.670738 181 5439ft 0kts
10-Oct-18 14:27 39.859216 -104.670738 181 5439ft 0kts
10-Oct-18 14:28 39.859216 -104.670738 181 5439ft 0kts
10-Oct-18 14:29 39.859216 -104.670738 181 5439ft 0kts
10-Oct-18 14:30 39.859216 -104.670738 181 5439ft 0kts
10-Oct-18 14:31 39.859216 -104.670738 181 5439ft 0kts
10-Oct-18 14:32 39.859216 -104.670738 181 5439ft 0kts
10-Oct-18 14:33 39.859216 -104.670738 181 5439ft 0kts
10-Oct-18 14:34 39.859216 -104.670738 181 5439ft 0kts
10-Oct-18 14:35 39.859216 -104.670738 181 5439ft 0kts
10-Oct-18 14:36 39.859216 -104.670738 181 5439ft 0kts
10-Oct-18 14:37 39.859216 -104.670738 181 5439ft 0kts
10-Oct-18 14:38 39.859216 -104.670738 181 5439ft 0kts
10-Oct-18 14:39 39.859216 -104.670738 181 5439ft 0kts
10-Oct-18 14:40 39.859216 -104.670738 181 5439ft 0kts
10-Oct-18 14:41 39.859216 -104.670738 181 5439ft 0kts
10-Oct-18 14:42 39.859216 -104.670738 181 5439ft 0kts
10-Oct-18 14:43 39.859216 -104.670738 181 5439ft 0kts
10-Oct-18 14:44 39.859216 -104.670738 181 5439ft 0kts
10-Oct-18 14:45 39.859216 -104.670738 181 5439ft 0kts
10-Oct-18 14:46 39.859216 -104.670738 181 5439ft 0kts
10-Oct-18 14:47 39.859216 -104.670738 181 5439ft 0kts
10-Oct-18 14:48 39.859216 -104.670738 181 5439ft 0kts
10-Oct-18 14:49 39.859216 -104.670738 181 5439ft 0kts
10-Oct-18 14:50 39.859344 -104.670734 182 5439ft 2kts
10-Oct-18 14:51 39.859947 -104.670534 229 5439ft 2kts
10-Oct-18 14:52 39.860012 -104.670190 270 5439ft 0kts
10-Oct-18 14:53 39.860012 -104.670190 270 5439ft 0kts
10-Oct-18 14:54 39.860012 -104.670190 270 5439ft 0kts
10-Oct-18 14:55 39.860012 -104.670190 270 5439ft 0kts
10-Oct-18 14:56 39.860012 -104.670199 270 5439ft 0kts
10-Oct-18 14:57 39.860264 -104.672978 331 5439ft 9kts
10-Oct-18 14:58 39.860528 -104.678657 270 5439ft 17kts
10-Oct-18 14:59 39.860245 -104.684600 268 5439ft 16kts
10-Oct-18 15:00 39.856598 -104.685185 180 5439ft 18kts
10-Oct-18 15:01 39.851997 -104.685887 271 5439ft 11kts
10-Oct-18 15:02 39.852016 -104.690288 271 5439ft 14kts
10-Oct-18 15:03 39.852012 -104.696092 268 5439ft 13kts
10-Oct-18 15:04 39.865667 -104.696443 0 5439ft 143kts
10-Oct-18 15:05 39.909892 -104.714793 297 7726ft 193kts
10-Oct-18 15:06 39.923484 -104.787719 282 9657ft 248kts
10-Oct-18 15:07 39.939849 -104.885290 279 11979ft 296kts
10-Oct-18 15:08 39.947403 -105.002059 274 14159ft 343kts
10-Oct-18 15:09 39.962388 -105.127606 276 17069ft 357kts
10-Oct-18 15:10 39.977546 -105.258116 275 19628ft 371kts
10-Oct-18 15:11 39.983593 -105.394611 264 21862ft 383kts
10-Oct-18 15:12 39.978818 -105.536612 264 23781ft 399kts
10-Oct-18 15:13 39.974467 -105.682601 264 25707ft 406kts
10-Oct-18 15:14 39.971625 -105.830544 266 27359ft 412kts
10-Oct-18 15:15 39.977220 -105.981048 271 28925ft 419kts
10-Oct-18 15:16 39.986428 -106.132865 271 30651ft 415kts
10-Oct-18 15:17 39.994385 -106.281596 271 32368ft 407kts
10-Oct-18 15:18 40.001911 -106.428132 271 33784ft 405kts
10-Oct-18 15:19 40.009097 -106.575113 271 34928ft 407kts
10-Oct-18 15:20 40.016006 -106.722740 271 35974ft 409kts
10-Oct-18 15:21 40.021675 -106.847271 271 36062ft 410kts
10-Oct-18 15:22 40.029955 -107.020812 271 36086ft 413kts
10-Oct-18 15:23 40.035666 -107.145987 271 36092ft 415kts
10-Oct-18 15:24 40.042259 -107.296835 271 36098ft 416kts
10-Oct-18 15:25 40.048637 -107.448093 271 36097ft 418kts
10-Oct-18 15:26 40.056147 -107.625269 271 36088ft 420kts
10-Oct-18 15:27 40.061063 -107.752862 271 36081ft 421kts
10-Oct-18 15:28 40.066741 -107.905724 271 36079ft 423kts
10-Oct-18 15:29 40.073461 -108.058914 273 36081ft 415kts
10-Oct-18 15:30 40.079877 -108.205926 273 36076ft 401kts
10-Oct-18 15:31 40.086059 -108.352038 273 36073ft 403kts
10-Oct-18 15:32 40.092780 -108.498479 273 36070ft 404kts
10-Oct-18 15:33 40.098993 -108.645452 272 36070ft 405kts
10-Oct-18 15:34 40.104681 -108.792737 272 36070ft 407kts
10-Oct-18 15:35 40.110292 -108.941112 272 36069ft 409kts
10-Oct-18 15:36 40.115629 -109.089734 272 36065ft 411kts
10-Oct-18 15:37 40.120739 -109.238558 272 36060ft 411kts
10-Oct-18 15:38 40.125998 -109.388191 273 36056ft 413kts
10-Oct-18 15:39 40.131260 -109.538538 272 36055ft 414kts
10-Oct-18 15:40 40.136147 -109.689249 272 36054ft 415kts
10-Oct-18 15:41 40.141103 -109.840413 272 36054ft 416kts
10-Oct-18 15:42 40.145393 -109.991323 272 36053ft 417kts
10-Oct-18 15:43 40.149278 -110.138526 273 35742ft 392kts
10-Oct-18 15:44 40.148015 -110.280102 272 34740ft 387kts
10-Oct-18 15:45 40.146396 -110.420444 272 32591ft 386kts
10-Oct-18 15:46 40.144754 -110.558982 272 30333ft 374kts
10-Oct-18 15:47 40.143368 -110.714224 272 28035ft 360kts
10-Oct-18 15:48 40.142041 -110.845269 271 26087ft 370kts
10-Oct-18 15:49 40.140572 -110.958474 270 24418ft 372kts
10-Oct-18 15:50 40.138458 -111.091988 270 22482ft 363kts
10-Oct-18 15:51 40.136315 -111.222793 270 20614ft 355kts
10-Oct-18 15:52 40.134268 -111.350592 269 18792ft 348kts
10-Oct-18 15:53 40.131868 -111.476095 269 17010ft 342kts
10-Oct-18 15:54 40.147733 -111.595589 294 15499ft 332kts
10-Oct-18 15:55 40.192676 -111.699955 309 14317ft 323kts
10-Oct-18 15:56 40.253593 -111.782610 313 13201ft 308kts
10-Oct-18 15:57 40.315508 -111.857119 322 12133ft 297kts
10-Oct-18 15:58 40.380969 -111.920265 333 11097ft 289kts
10-Oct-18 15:59 40.455128 -111.936287 354 10723ft 258kts
10-Oct-18 16:00 40.540762 -111.945988 354 8743ft 259kts
10-Oct-18 16:01 40.598297 -111.952607 354 7634ft 239kts
10-Oct-18 16:02 40.661679 -111.959968 355 6423ft 220kts
10-Oct-18 16:03 40.718189 -111.966503 355 5347ft 178kts
10-Oct-18 16:04 40.763850 -111.971790 354 4466ft 158kts
10-Oct-18 16:05 40.793674 -111.975277 349 4235ft 21kts
10-Oct-18 16:06 40.795641 -111.976820 322 4235ft 11kts
10-Oct-18 16:07 40.795183 -111.977617 174 4235ft 7kts
10-Oct-18 16:08 40.793117 -111.977377 176 4235ft 12kts
10-Oct-18 16:09 40.791151 -111.978686 174 4235ft 8kts
10-Oct-18 16:10 40.789160 -111.979750 175 4235ft 9kts
10-Oct-18 16:11 40.788063 -111.980718 281 4235ft 1kts
10-Oct-18 16:12 40.788075 -111.980794 281 4235ft 0kts

Navigation Log

Ident Type
Flight plan parsing failed, navigation log unavailable